createdAt,value
2023-04-14T00:02:13.925Z,5.26
2023-04-14T00:04:41.148Z,5.22
2023-04-14T00:07:08.197Z,5.17
2023-04-14T00:09:35.169Z,5.13
2023-04-14T00:12:02.228Z,5.09
2023-04-14T00:14:29.385Z,5.04
2023-04-14T00:16:56.427Z,5.01
2023-04-14T00:19:23.557Z,4.98
2023-04-14T00:21:51.059Z,4.93
2023-04-14T00:24:17.976Z,4.82
2023-04-14T00:26:44.995Z,4.82
2023-04-14T00:29:12.142Z,4.81
2023-04-14T00:31:39.112Z,4.78
2023-04-14T00:34:06.279Z,4.74
2023-04-14T00:36:33.391Z,4.67
2023-04-14T00:39:01.384Z,4.70
2023-04-14T00:41:36.280Z,4.68
2023-04-14T00:44:03.305Z,4.68
2023-04-14T00:46:30.721Z,4.65
2023-04-14T00:48:58.494Z,4.61
2023-04-14T00:51:27.422Z,4.58
2023-04-14T00:53:55.621Z,4.54
2023-04-14T00:56:23.773Z,4.51
2023-04-14T00:58:52.766Z,4.51
2023-04-14T01:01:21.103Z,4.50
2023-04-14T01:03:48.604Z,4.48
2023-04-14T01:06:15.681Z,4.44
2023-04-14T01:08:42.719Z,4.40
2023-04-14T01:11:58.682Z,4.38
2023-04-14T01:14:25.628Z,4.34
2023-04-14T01:17:00.648Z,4.32
2023-04-14T01:19:43.341Z,4.35
2023-04-14T01:22:14.887Z,4.24
2023-04-14T01:25:05.174Z,4.18
2023-04-14T01:27:46.497Z,4.14
2023-04-14T01:30:41.952Z,4.12
2023-04-14T01:33:15.653Z,4.06
2023-04-14T01:35:45.220Z,4.07
2023-04-14T01:38:22.500Z,3.99
2023-04-14T01:40:52.659Z,3.96
2023-04-14T01:43:25.660Z,3.91
2023-04-14T01:45:56.506Z,3.86
2023-04-14T01:48:25.922Z,3.81
2023-04-14T01:50:55.414Z,3.77
2023-04-14T01:53:24.555Z,3.76
2023-04-14T01:55:53.290Z,3.69
2023-04-14T01:58:23.046Z,3.67
2023-04-14T02:00:52.866Z,3.59
2023-04-14T02:03:22.067Z,3.54
2023-04-14T02:05:52.664Z,3.51
2023-04-14T02:08:21.457Z,3.47
2023-04-14T02:10:50.421Z,3.41
2023-04-14T02:13:20.042Z,3.39
2023-04-14T02:15:51.200Z,3.42
2023-04-14T02:18:23.218Z,3.42
2023-04-14T02:20:52.820Z,3.37
2023-04-14T02:23:19.909Z,3.32
2023-04-14T02:26:01.011Z,3.25
2023-04-14T02:28:32.336Z,3.13
2023-04-14T02:31:05.029Z,3.05
2023-04-14T02:33:36.868Z,3.05
2023-04-14T02:36:19.295Z,3.05
2023-04-14T02:38:49.892Z,3.04
2023-04-14T02:41:23.892Z,3.08
2023-04-14T02:44:04.169Z,3.08
2023-04-14T02:46:39.665Z,3.04
2023-04-14T02:49:12.741Z,2.97
2023-04-14T02:51:41.785Z,2.90
2023-04-14T02:54:09.315Z,2.86
2023-04-14T02:56:43.012Z,2.85
2023-04-14T02:59:10.256Z,2.79
2023-04-14T03:01:48.924Z,2.77
2023-04-14T03:04:18.365Z,2.76
2023-04-14T03:06:46.191Z,2.74
2023-04-14T03:09:13.959Z,2.77
2023-04-14T03:11:43.264Z,2.78
2023-04-14T03:14:11.198Z,2.79
2023-04-14T03:16:40.541Z,2.84
2023-04-14T03:19:10.464Z,2.89
2023-04-14T03:21:42.433Z,2.90
2023-04-14T03:24:14.131Z,2.96
2023-04-14T03:26:44.246Z,3.01
2023-04-14T03:29:12.769Z,3.06
2023-04-14T03:31:44.299Z,3.09
2023-04-14T03:34:15.451Z,3.12
2023-04-14T03:36:48.882Z,3.18
2023-04-14T03:39:18.874Z,3.14
2023-04-14T03:41:49.497Z,3.12
2023-04-14T03:44:20.188Z,3.15
2023-04-14T03:46:50.582Z,3.08
2023-04-14T03:49:20.970Z,3.16
2023-04-14T03:51:53.404Z,3.20
2023-04-14T03:54:25.577Z,3.25
2023-04-14T03:56:56.980Z,3.24
2023-04-14T03:59:27.852Z,3.28
2023-04-14T04:01:56.592Z,3.29
2023-04-14T04:04:25.291Z,3.28
2023-04-14T04:06:53.748Z,3.23
2023-04-14T04:09:24.753Z,3.18
2023-04-14T04:11:53.239Z,3.15
2023-04-14T04:14:23.031Z,3.08
2023-04-14T04:16:53.889Z,3.10
2023-04-14T04:19:22.421Z,3.13
2023-04-14T04:21:53.556Z,3.10
2023-04-14T04:24:23.209Z,3.04
2023-04-14T04:26:53.186Z,2.98
2023-04-14T04:29:25.456Z,2.92
2023-04-14T04:31:55.021Z,2.93
2023-04-14T04:34:25.790Z,2.94
2023-04-14T04:36:54.552Z,2.97
2023-04-14T04:39:21.562Z,3.02
2023-04-14T04:41:52.047Z,3.12
2023-04-14T04:44:38.729Z,3.21
2023-04-14T04:47:06.274Z,3.19
2023-04-14T04:49:33.236Z,3.19
2023-04-14T04:52:03.425Z,3.24
2023-04-14T04:54:31.702Z,3.30
2023-04-14T04:56:58.987Z,3.38
2023-04-14T04:59:26.318Z,3.38
2023-04-14T05:01:53.587Z,3.35
2023-04-14T05:04:20.663Z,3.30
2023-04-14T05:06:47.807Z,3.34
2023-04-14T05:09:14.814Z,3.33
2023-04-14T05:11:41.905Z,3.23
2023-04-14T05:14:08.953Z,3.42
2023-04-14T05:16:36.402Z,3.46
2023-04-14T05:19:04.124Z,3.56
2023-04-14T05:21:31.135Z,3.67
2023-04-14T05:23:58.061Z,3.71
2023-04-14T05:28:54.834Z,3.62
2023-04-14T05:31:22.303Z,3.60
2023-04-14T05:33:49.370Z,3.59
2023-04-14T05:36:16.502Z,3.54
2023-04-14T05:38:43.539Z,3.49
2023-04-14T05:41:12.099Z,3.48
2023-04-14T05:43:39.260Z,3.48
2023-04-14T05:46:06.286Z,3.48
2023-04-14T05:48:33.763Z,3.50
2023-04-14T05:51:01.013Z,3.56
2023-04-14T05:53:28.006Z,3.60
2023-04-14T05:55:56.948Z,3.60
2023-04-14T05:58:26.398Z,3.65
2023-04-14T06:00:53.438Z,3.72
2023-04-14T06:03:20.538Z,3.79
2023-04-14T06:05:48.372Z,3.79
2023-04-14T06:08:15.562Z,3.80
2023-04-14T06:10:42.619Z,3.82
2023-04-14T06:13:09.701Z,3.80
2023-04-14T06:15:37.450Z,3.73
2023-04-14T06:18:04.544Z,3.78
2023-04-14T06:20:32.604Z,3.84
2023-04-14T06:23:01.042Z,3.82
2023-04-14T06:25:31.198Z,3.86
2023-04-14T06:27:58.341Z,3.89
2023-04-14T06:30:28.558Z,3.87
2023-04-14T06:32:55.586Z,3.88
2023-04-14T06:35:32.445Z,3.92
2023-04-14T06:38:00.906Z,3.93
2023-04-14T06:40:27.941Z,3.98
2023-04-14T06:42:55.029Z,4.10
2023-04-14T06:45:22.082Z,4.21
2023-04-14T06:47:49.143Z,4.30
2023-04-14T06:50:16.348Z,4.33
2023-04-14T06:52:43.507Z,4.34
2023-04-14T06:55:10.833Z,4.33
2023-04-14T06:57:37.820Z,4.42
2023-04-14T07:00:08.585Z,4.55
2023-04-14T07:02:35.601Z,4.63
2023-04-14T07:05:03.026Z,4.77
2023-04-14T07:07:30.149Z,4.89
2023-04-14T07:09:57.193Z,5.00
2023-04-14T07:12:24.411Z,5.13
2023-04-14T07:14:52.318Z,5.25
2023-04-14T07:17:19.958Z,5.32
2023-04-14T07:19:47.187Z,5.35
2023-04-14T07:22:14.135Z,5.42
2023-04-14T07:24:41.194Z,5.45
2023-04-14T07:27:15.409Z,5.36
2023-04-14T07:29:43.118Z,5.40
2023-04-14T07:32:12.139Z,5.46
2023-04-14T07:34:44.011Z,5.52
2023-04-14T07:37:11.482Z,5.48
2023-04-14T07:39:38.641Z,5.44
2023-04-14T07:42:05.766Z,5.44
2023-04-14T07:44:33.399Z,5.54
2023-04-14T07:47:00.527Z,5.66
2023-04-14T07:49:27.456Z,5.74
2023-04-14T07:51:54.392Z,5.77
2023-04-14T07:54:21.904Z,5.79
2023-04-14T07:56:49.115Z,5.85
2023-04-14T07:59:16.219Z,5.89
2023-04-14T08:01:43.181Z,5.92
2023-04-14T08:04:11.130Z,5.90
2023-04-14T08:06:38.214Z,5.94
2023-04-14T08:09:05.229Z,5.99
2023-04-14T08:11:32.205Z,6.05
2023-04-14T08:13:59.122Z,6.12
2023-04-14T08:16:26.737Z,6.18
2023-04-14T08:18:55.709Z,6.28
2023-04-14T08:21:24.251Z,6.40
2023-04-14T08:23:51.152Z,6.46
2023-04-14T08:26:18.178Z,6.51
2023-04-14T08:28:45.184Z,6.48
2023-04-14T08:31:12.103Z,6.49
2023-04-14T08:33:39.064Z,6.48
2023-04-14T08:36:06.922Z,6.49
2023-04-14T08:38:33.989Z,6.58
2023-04-14T08:41:04.166Z,6.73
2023-04-14T08:43:31.073Z,6.87
2023-04-14T08:45:58.469Z,6.96
2023-04-14T08:48:33.481Z,7.01
2023-04-14T08:51:01.476Z,7.08
2023-04-14T08:53:31.878Z,7.20
2023-04-14T08:56:04.311Z,7.30
2023-04-14T08:58:32.478Z,7.37
2023-04-14T09:01:00.245Z,7.37
2023-04-14T09:03:27.653Z,7.39
2023-04-14T09:05:55.349Z,7.43
2023-04-14T09:08:22.701Z,7.45
2023-04-14T09:10:51.055Z,7.42
2023-04-14T09:13:21.715Z,7.44
2023-04-14T09:15:49.903Z,7.50
2023-04-14T09:18:17.381Z,7.60
2023-04-14T09:20:48.068Z,7.68
2023-04-14T09:23:35.108Z,7.60
2023-04-14T09:26:02.584Z,7.54
2023-04-14T09:28:29.488Z,7.51
2023-04-14T09:30:56.620Z,7.57
2023-04-14T09:33:23.810Z,7.62
2023-04-14T09:35:52.460Z,7.64
2023-04-14T09:38:39.725Z,7.71
2023-04-14T09:41:07.176Z,7.73
2023-04-14T09:43:34.448Z,7.82
2023-04-14T09:46:10.849Z,7.95
2023-04-14T09:48:57.189Z,8.04
2023-04-14T09:51:28.573Z,8.02
2023-04-14T09:54:01.657Z,7.99
2023-04-14T09:56:29.118Z,8.03
2023-04-14T09:59:01.155Z,8.11
2023-04-14T10:01:34.464Z,8.21
2023-04-14T10:04:02.810Z,8.37
2023-04-14T10:06:31.571Z,8.49
2023-04-14T10:09:00.023Z,8.65
2023-04-14T10:11:36.617Z,8.78
2023-04-14T10:14:05.450Z,8.91
2023-04-14T10:16:33.975Z,8.95
2023-04-14T10:19:02.305Z,9.04
2023-04-14T10:21:29.737Z,9.09
2023-04-14T10:23:57.932Z,9.12
2023-04-14T10:26:26.735Z,9.08
2023-04-14T10:28:55.670Z,9.04
2023-04-14T10:31:24.703Z,9.03
2023-04-14T10:33:52.605Z,9.10
2023-04-14T10:36:26.393Z,9.10
2023-04-14T10:39:05.579Z,9.08
2023-04-14T10:41:44.239Z,9.11
2023-04-14T10:44:24.380Z,9.14
2023-04-14T10:46:52.450Z,9.23
2023-04-14T10:49:22.642Z,9.37
2023-04-14T10:51:50.201Z,9.54
2023-04-14T10:54:21.994Z,9.58
2023-04-14T10:57:12.563Z,9.62
2023-04-14T10:59:43.420Z,9.46
2023-04-14T11:02:34.734Z,9.38
2023-04-14T11:05:04.606Z,9.38
2023-04-14T11:07:38.229Z,9.41
2023-04-14T11:10:17.321Z,9.41
2023-04-14T11:12:45.680Z,9.36
2023-04-14T11:15:12.972Z,9.31
2023-04-14T11:17:41.654Z,9.33
2023-04-14T11:20:18.482Z,9.36
2023-04-14T11:22:47.533Z,9.39
2023-04-14T11:25:22.152Z,9.51
2023-04-14T11:27:51.917Z,9.63
2023-04-14T11:30:20.070Z,9.66
2023-04-14T11:32:57.867Z,9.69
2023-04-14T11:35:27.123Z,9.67
2023-04-14T11:37:55.985Z,9.65
2023-04-14T11:40:24.815Z,9.72
2023-04-14T11:42:54.113Z,9.78
2023-04-14T11:45:21.441Z,9.84
2023-04-14T11:48:03.980Z,9.88
2023-04-14T11:50:33.131Z,9.87
2023-04-14T11:53:00.837Z,9.89
2023-04-14T11:55:30.041Z,9.98
2023-04-14T11:57:58.001Z,10.17
2023-04-14T12:00:25.449Z,10.45
2023-04-14T12:02:52.697Z,10.75
2023-04-14T12:05:31.426Z,11.21
2023-04-14T12:08:00.052Z,11.70
2023-04-14T12:10:28.364Z,12.30
2023-04-14T12:13:08.637Z,13.08
2023-04-14T12:15:37.453Z,13.70
2023-04-14T12:18:07.757Z,14.12
2023-04-14T12:20:47.022Z,14.50
2023-04-14T12:23:15.617Z,14.81
2023-04-14T12:25:42.758Z,15.37
2023-04-14T12:28:10.077Z,15.86
2023-04-14T12:30:37.801Z,16.33
2023-04-14T12:33:12.550Z,16.83
2023-04-14T12:35:40.993Z,17.39
2023-04-14T12:38:15.297Z,17.88
2023-04-14T12:40:48.017Z,17.90
2023-04-14T12:43:16.867Z,17.92
2023-04-14T12:45:48.924Z,17.81
2023-04-14T12:48:17.892Z,17.80
2023-04-14T12:50:45.296Z,18.00
2023-04-14T12:53:28.891Z,18.40
2023-04-14T12:56:07.943Z,18.77
2023-04-14T12:58:39.989Z,18.51
2023-04-14T13:01:08.944Z,18.44
2023-04-14T13:03:43.059Z,18.61
2023-04-14T13:06:11.434Z,18.84
2023-04-14T13:08:42.730Z,19.06
2023-04-14T13:11:09.688Z,19.29
2023-04-14T13:13:36.857Z,19.57
2023-04-14T13:16:14.603Z,19.86
2023-04-14T13:18:47.438Z,20.27
2023-04-14T13:21:14.552Z,20.69
2023-04-14T13:23:42.135Z,20.78
2023-04-14T13:26:09.446Z,20.80
2023-04-14T13:28:36.995Z,20.95
2023-04-14T13:31:04.354Z,20.79
2023-04-14T13:33:33.279Z,20.35
2023-04-14T13:36:02.551Z,20.00
2023-04-14T13:38:30.153Z,20.21
2023-04-14T13:40:57.078Z,20.28
2023-04-14T13:43:24.874Z,20.15
2023-04-14T13:45:52.896Z,20.22
2023-04-14T13:48:19.963Z,20.24
2023-04-14T13:50:48.126Z,20.48
2023-04-14T13:53:15.056Z,20.68
2023-04-14T13:55:42.136Z,20.77
2023-04-14T13:58:09.084Z,20.65
2023-04-14T14:00:36.406Z,20.29
2023-04-14T14:03:03.600Z,19.79
2023-04-14T14:05:30.865Z,19.43
2023-04-14T14:07:57.862Z,19.13
2023-04-14T14:10:24.914Z,18.85
2023-04-14T14:12:51.927Z,18.76
2023-04-14T14:15:19.163Z,18.79
2023-04-14T14:17:46.272Z,18.67
2023-04-14T14:20:13.296Z,18.52
2023-04-14T14:22:40.491Z,18.53
2023-04-14T14:25:19.415Z,18.69
2023-04-14T14:27:50.303Z,18.79
2023-04-14T14:30:17.349Z,18.69
2023-04-14T14:32:44.302Z,18.72
2023-04-14T14:35:11.395Z,18.79
2023-04-14T14:37:38.458Z,18.90
2023-04-14T14:40:06.710Z,19.04
2023-04-14T14:42:33.672Z,18.90
2023-04-14T14:45:01.841Z,18.49
2023-04-14T14:47:30.418Z,18.32
2023-04-14T14:50:03.379Z,18.29
2023-04-14T14:52:34.664Z,18.32
2023-04-14T14:55:02.140Z,18.21
2023-04-14T14:57:30.594Z,17.77
2023-04-14T14:59:57.875Z,17.41
2023-04-14T15:02:25.835Z,17.05
2023-04-14T15:04:54.092Z,16.65
2023-04-14T15:07:21.005Z,16.31
2023-04-14T15:09:49.020Z,15.92
2023-04-14T15:12:16.056Z,15.64
2023-04-14T15:14:44.227Z,15.35
2023-04-14T15:17:11.193Z,15.09
2023-04-14T15:19:38.491Z,14.98
2023-04-14T15:22:05.620Z,14.89
2023-04-14T15:24:32.589Z,14.59
2023-04-14T15:26:59.588Z,14.33
2023-04-14T15:29:26.830Z,14.03
2023-04-14T15:31:54.074Z,13.68
2023-04-14T15:34:21.609Z,13.40
2023-04-14T15:36:48.842Z,12.99
2023-04-14T15:39:15.891Z,12.57
2023-04-14T15:41:43.465Z,12.27
2023-04-14T15:44:10.484Z,11.96
2023-04-14T15:46:37.525Z,11.72
2023-04-14T15:49:04.680Z,11.37
2023-04-14T15:51:31.533Z,10.95
2023-04-14T15:53:58.429Z,10.55
2023-04-14T15:56:26.029Z,10.19
2023-04-14T15:58:53.060Z,9.92
2023-04-14T16:01:20.961Z,9.73
2023-04-14T16:03:49.235Z,9.53
2023-04-14T16:06:17.459Z,9.34
2023-04-14T16:08:44.513Z,9.10
2023-04-14T16:11:18.307Z,8.99
2023-04-14T16:13:45.817Z,8.91
2023-04-14T16:16:14.420Z,8.72
2023-04-14T16:18:42.541Z,8.55
2023-04-14T16:21:09.632Z,8.36
2023-04-14T16:23:36.952Z,8.20
2023-04-14T16:26:04.335Z,8.05
2023-04-14T16:28:31.536Z,7.89
2023-04-14T16:31:02.938Z,7.73
2023-04-14T16:33:32.493Z,7.62
2023-04-14T16:36:04.312Z,7.51
2023-04-14T16:38:31.880Z,7.37
2023-04-14T16:40:59.378Z,7.30
2023-04-14T16:43:28.177Z,7.21
2023-04-14T16:46:04.179Z,7.14
2023-04-14T16:48:32.701Z,7.05
2023-04-14T16:51:04.802Z,6.96
2023-04-14T16:53:31.858Z,6.94
2023-04-14T16:56:09.244Z,6.83
2023-04-14T16:58:38.066Z,6.77
2023-04-14T17:01:06.910Z,6.69
2023-04-14T17:03:34.779Z,6.65
2023-04-14T17:06:02.685Z,6.59
2023-04-14T17:08:29.722Z,6.52
2023-04-14T17:10:56.919Z,6.47
2023-04-14T17:13:23.882Z,6.43
2023-04-14T17:15:58.965Z,6.35
2023-04-14T17:18:34.998Z,6.34
2023-04-14T17:21:02.169Z,6.28
2023-04-14T17:23:29.474Z,6.22
2023-04-14T17:25:58.826Z,6.17
2023-04-14T17:28:27.324Z,6.12
2023-04-14T17:30:54.429Z,6.09
2023-04-14T17:33:22.185Z,6.05
2023-04-14T17:35:49.369Z,6.00
2023-04-14T17:38:16.360Z,5.96
2023-04-14T17:40:43.385Z,5.92
2023-04-14T17:43:10.293Z,5.85
2023-04-14T17:45:40.115Z,5.84
2023-04-14T17:48:08.207Z,5.80
2023-04-14T17:50:35.915Z,5.77
2023-04-14T17:53:03.181Z,5.71
2023-04-14T17:55:30.269Z,5.64
2023-04-14T17:57:57.818Z,5.64
2023-04-14T18:00:24.773Z,5.56
2023-04-14T18:02:52.286Z,5.57
2023-04-14T18:05:19.481Z,5.52
2023-04-14T18:07:47.205Z,5.49
2023-04-14T18:10:14.280Z,5.45
2023-04-14T18:12:42.010Z,5.41
2023-04-14T18:15:12.144Z,5.38
2023-04-14T18:17:39.181Z,5.36
2023-04-14T18:20:07.218Z,5.33
2023-04-14T18:22:34.890Z,5.25
2023-04-14T18:25:03.182Z,5.24
2023-04-14T18:30:00.240Z,5.14
2023-04-14T18:32:30.013Z,5.10
2023-04-14T18:34:57.588Z,5.07
2023-04-14T18:37:24.652Z,5.04
2023-04-14T18:39:51.620Z,5.01
2023-04-14T18:42:18.627Z,4.98
2023-04-14T18:44:45.716Z,4.95
2023-04-14T18:47:12.781Z,4.91
2023-04-14T18:49:39.796Z,4.89
2023-04-14T18:52:07.573Z,4.88
2023-04-14T18:54:34.651Z,4.85
2023-04-14T18:57:03.614Z,4.82
2023-04-14T18:59:30.574Z,4.81
2023-04-14T19:01:58.478Z,4.76
2023-04-14T19:04:26.065Z,4.74
2023-04-14T19:06:53.040Z,4.70
2023-04-14T19:09:20.228Z,4.67
2023-04-14T19:11:47.960Z,4.62
2023-04-14T19:14:14.862Z,4.58
2023-04-14T19:16:41.782Z,4.55
2023-04-14T19:19:08.923Z,4.50
2023-04-14T19:21:36.344Z,4.46
2023-04-14T19:24:03.681Z,4.44
2023-04-14T19:26:30.722Z,4.40
2023-04-14T19:29:00.300Z,4.38
2023-04-14T19:31:28.461Z,4.34
2023-04-14T19:33:56.408Z,4.29
2023-04-14T19:36:23.654Z,4.26
2023-04-14T19:38:51.512Z,4.22
2023-04-14T19:41:19.461Z,4.21
2023-04-14T19:43:46.932Z,4.18
2023-04-14T19:46:13.954Z,4.17
2023-04-14T19:48:40.863Z,4.08
2023-04-14T19:51:08.119Z,4.10
2023-04-14T19:53:35.455Z,4.05
2023-04-14T19:56:03.607Z,4.01
2023-04-14T19:58:31.474Z,4.01
2023-04-14T20:00:59.156Z,3.97
2023-04-14T20:03:26.714Z,3.95
2023-04-14T20:05:55.842Z,3.92
2023-04-14T20:08:27.525Z,3.89
2023-04-14T20:10:55.098Z,3.87
2023-04-14T20:13:23.370Z,3.83
2023-04-14T20:15:54.002Z,3.82
2023-04-14T20:18:22.864Z,3.79
2023-04-14T20:20:50.283Z,3.77
2023-04-14T20:23:17.500Z,3.75
2023-04-14T20:25:45.569Z,3.70
2023-04-14T20:28:12.766Z,3.70
2023-04-14T20:30:40.146Z,3.69
2023-04-14T20:33:07.148Z,3.67
2023-04-14T20:35:37.146Z,3.65
2023-04-14T20:38:04.848Z,3.64
2023-04-14T20:40:31.774Z,3.63
2023-04-14T20:42:59.445Z,3.60
2023-04-14T20:45:26.502Z,3.59
2023-04-14T20:47:53.573Z,3.59
2023-04-14T20:50:20.625Z,3.54
2023-04-14T20:52:47.517Z,3.52
2023-04-14T20:55:14.651Z,3.50
2023-04-14T20:57:54.528Z,3.51
2023-04-14T21:00:21.523Z,3.51
2023-04-14T21:02:49.011Z,3.51
2023-04-14T21:05:17.763Z,3.51
2023-04-14T21:07:46.136Z,3.50
2023-04-14T21:10:15.080Z,3.49
2023-04-14T21:15:27.088Z,3.42
2023-04-14T21:15:48.941Z,3.46
2023-04-14T21:18:16.347Z,3.43
2023-04-14T21:20:43.648Z,3.38
2023-04-14T21:23:10.825Z,3.36
2023-04-14T21:25:37.814Z,3.37
2023-04-14T21:28:05.006Z,3.35
2023-04-14T21:30:32.302Z,3.35
2023-04-14T21:32:59.529Z,3.33
2023-04-14T21:35:26.479Z,3.30
2023-04-14T21:37:53.705Z,3.30
2023-04-14T21:40:21.643Z,3.28
2023-04-14T21:42:48.582Z,3.27
2023-04-14T21:45:15.449Z,3.26
2023-04-14T21:47:42.917Z,3.25
2023-04-14T21:50:10.569Z,3.23
2023-04-14T21:52:37.519Z,3.19
2023-04-14T21:55:04.758Z,3.18
2023-04-14T21:57:43.589Z,3.15
2023-04-14T22:00:17.912Z,3.14
2023-04-14T22:02:45.649Z,3.11
2023-04-14T22:05:13.783Z,3.10
2023-04-14T22:07:41.416Z,3.09
2023-04-14T22:10:08.862Z,3.06
2023-04-14T22:12:39.950Z,3.06
2023-04-14T22:15:11.046Z,3.04
2023-04-14T22:17:39.094Z,3.02
2023-04-14T22:20:06.985Z,3.01
2023-04-14T22:22:34.963Z,2.95
2023-04-14T22:25:03.710Z,2.99
2023-04-14T22:27:31.487Z,2.97
2023-04-14T22:29:58.383Z,2.96
2023-04-14T22:32:25.913Z,2.93
2023-04-14T22:34:53.087Z,2.88
2023-04-14T22:37:20.064Z,2.87
2023-04-14T22:39:46.941Z,2.82
2023-04-14T22:42:14.077Z,2.79
2023-04-14T22:44:41.354Z,2.77
2023-04-14T22:47:08.657Z,2.72
2023-04-14T22:49:35.793Z,2.70
2023-04-14T22:52:02.934Z,2.67
2023-04-14T22:54:29.836Z,2.65
2023-04-14T22:56:57.312Z,2.62
2023-04-14T22:59:25.689Z,2.59
2023-04-14T23:01:53.847Z,2.57
2023-04-14T23:04:20.983Z,2.55
2023-04-14T23:06:48.118Z,2.49
2023-04-14T23:09:15.438Z,2.46
2023-04-14T23:11:42.746Z,2.41
2023-04-14T23:14:09.689Z,2.37
2023-04-14T23:16:36.754Z,2.39
2023-04-14T23:19:04.043Z,2.38
2023-04-14T23:21:31.291Z,2.35
2023-04-14T23:23:58.163Z,2.29
2023-04-14T23:26:25.731Z,2.29
2023-04-14T23:28:53.156Z,2.29
2023-04-14T23:31:20.141Z,2.25
2023-04-14T23:33:49.590Z,2.23
2023-04-14T23:36:16.786Z,2.18
2023-04-14T23:38:43.959Z,2.13
2023-04-14T23:41:11.344Z,2.08
2023-04-14T23:43:39.174Z,2.05
2023-04-14T23:46:06.519Z,2.03
2023-04-14T23:48:33.415Z,1.98
2023-04-14T23:51:14.681Z,1.96
2023-04-14T23:53:45.849Z,1.95
2023-04-14T23:56:13.180Z,1.94
2023-04-14T23:58:40.223Z,1.92
